sensor_id;sensor_type;location;lat;lon;timestamp;P1;durP1;ratioP1;P2;durP2;ratioP2
23718;SDS011;43322;52.230;5.702;2022-07-06T00:00:49;3.30;;;1.42;;
23718;SDS011;43322;52.230;5.702;2022-07-06T00:03:16;1.83;;;1.38;;
23718;SDS011;43322;52.230;5.702;2022-07-06T00:05:43;2.40;;;1.13;;
23718;SDS011;43322;52.230;5.702;2022-07-06T00:08:09;4.22;;;1.20;;
23718;SDS011;43322;52.230;5.702;2022-07-06T00:10:36;2.40;;;1.33;;
23718;SDS011;43322;52.230;5.702;2022-07-06T00:13:04;2.00;;;1.45;;
23718;SDS011;43322;52.230;5.702;2022-07-06T00:15:31;4.95;;;1.75;;
23718;SDS011;43322;52.230;5.702;2022-07-06T00:17:58;2.28;;;1.50;;
23718;SDS011;43322;52.230;5.702;2022-07-06T00:20:24;3.90;;;1.33;;
23718;SDS011;43322;52.230;5.702;2022-07-06T00:22:51;1.40;;;1.17;;
23718;SDS011;43322;52.230;5.702;2022-07-06T00:25:18;4.40;;;1.83;;
23718;SDS011;43322;52.230;5.702;2022-07-06T00:27:45;1.50;;;1.40;;
23718;SDS011;43322;52.230;5.702;2022-07-06T00:30:13;1.90;;;1.20;;
23718;SDS011;43322;52.230;5.702;2022-07-06T00:32:40;1.55;;;1.40;;
23718;SDS011;43322;52.230;5.702;2022-07-06T00:35:07;2.42;;;1.20;;
23718;SDS011;43322;52.230;5.702;2022-07-06T00:37:34;3.63;;;1.55;;
23718;SDS011;43322;52.230;5.702;2022-07-06T00:40:01;2.15;;;1.23;;
23718;SDS011;43322;52.230;5.702;2022-07-06T00:42:27;1.65;;;1.45;;
23718;SDS011;43322;52.230;5.702;2022-07-06T00:44:54;2.08;;;1.30;;
23718;SDS011;43322;52.230;5.702;2022-07-06T00:47:23;1.65;;;1.38;;
23718;SDS011;43322;52.230;5.702;2022-07-06T00:49:49;5.63;;;1.20;;
23718;SDS011;43322;52.230;5.702;2022-07-06T00:52:34;2.42;;;1.40;;
23718;SDS011;43322;52.230;5.702;2022-07-06T00:55:01;2.05;;;1.17;;
23718;SDS011;43322;52.230;5.702;2022-07-06T00:57:27;4.00;;;1.77;;
23718;SDS011;43322;52.230;5.702;2022-07-06T00:59:55;1.50;;;1.40;;
23718;SDS011;43322;52.230;5.702;2022-07-06T01:02:24;2.35;;;1.75;;
23718;SDS011;43322;52.230;5.702;2022-07-06T01:04:50;3.65;;;1.40;;
23718;SDS011;43322;52.230;5.702;2022-07-06T01:07:17;6.35;;;1.60;;
23718;SDS011;43322;52.230;5.702;2022-07-06T01:09:44;1.40;;;1.30;;
23718;SDS011;43322;52.230;5.702;2022-07-06T01:12:11;1.75;;;1.42;;
23718;SDS011;43322;52.230;5.702;2022-07-06T01:14:37;2.00;;;1.50;;
23718;SDS011;43322;52.230;5.702;2022-07-06T01:17:05;3.63;;;1.50;;
23718;SDS011;43322;52.230;5.702;2022-07-06T01:19:34;8.82;;;1.60;;
23718;SDS011;43322;52.230;5.702;2022-07-06T01:22:02;2.00;;;1.67;;
23718;SDS011;43322;52.230;5.702;2022-07-06T01:24:29;3.75;;;1.58;;
23718;SDS011;43322;52.230;5.702;2022-07-06T01:26:55;4.85;;;2.10;;
23718;SDS011;43322;52.230;5.702;2022-07-06T01:29:22;1.30;;;1.17;;
23718;SDS011;43322;52.230;5.702;2022-07-06T01:31:50;3.30;;;1.70;;
23718;SDS011;43322;52.230;5.702;2022-07-06T01:34:17;2.58;;;1.75;;
23718;SDS011;43322;52.230;5.702;2022-07-06T01:36:44;2.60;;;1.77;;
23718;SDS011;43322;52.230;5.702;2022-07-06T01:39:13;2.45;;;1.50;;
23718;SDS011;43322;52.230;5.702;2022-07-06T01:41:40;1.67;;;1.58;;
23718;SDS011;43322;52.230;5.702;2022-07-06T01:44:07;2.90;;;1.70;;
23718;SDS011;43322;52.230;5.702;2022-07-06T01:46:34;2.10;;;1.70;;
23718;SDS011;43322;52.230;5.702;2022-07-06T01:49:01;3.45;;;1.70;;
23718;SDS011;43322;52.230;5.702;2022-07-06T01:51:28;2.03;;;1.63;;
23718;SDS011;43322;52.230;5.702;2022-07-06T01:53:55;2.13;;;1.73;;
23718;SDS011;43322;52.230;5.702;2022-07-06T01:56:23;1.70;;;1.60;;
23718;SDS011;43322;52.230;5.702;2022-07-06T01:58:50;2.30;;;2.00;;
23718;SDS011;43322;52.230;5.702;2022-07-06T02:01:19;3.45;;;2.15;;
23718;SDS011;43322;52.230;5.702;2022-07-06T02:03:46;3.65;;;2.00;;
23718;SDS011;43322;52.230;5.702;2022-07-06T02:06:13;4.20;;;1.83;;
23718;SDS011;43322;52.230;5.702;2022-07-06T02:08:40;4.30;;;2.08;;
23718;SDS011;43322;52.230;5.702;2022-07-06T02:11:09;2.92;;;1.90;;
23718;SDS011;43322;52.230;5.702;2022-07-06T02:13:37;2.05;;;1.90;;
23718;SDS011;43322;52.230;5.702;2022-07-06T02:16:04;2.42;;;1.98;;
23718;SDS011;43322;52.230;5.702;2022-07-06T02:18:31;1.80;;;1.70;;
23718;SDS011;43322;52.230;5.702;2022-07-06T02:20:58;2.22;;;2.10;;
23718;SDS011;43322;52.230;5.702;2022-07-06T02:23:25;2.15;;;1.98;;
23718;SDS011;43322;52.230;5.702;2022-07-06T02:25:52;2.45;;;1.75;;
23718;SDS011;43322;52.230;5.702;2022-07-06T02:28:19;1.75;;;1.65;;
23718;SDS011;43322;52.230;5.702;2022-07-06T02:30:47;2.53;;;1.90;;
23718;SDS011;43322;52.230;5.702;2022-07-06T02:33:13;5.43;;;1.55;;
23718;SDS011;43322;52.230;5.702;2022-07-06T02:35:40;1.98;;;1.88;;
23718;SDS011;43322;52.230;5.702;2022-07-06T02:38:08;2.45;;;2.15;;
23718;SDS011;43322;52.230;5.702;2022-07-06T02:40:35;1.77;;;1.67;;
23718;SDS011;43322;52.230;5.702;2022-07-06T02:43:01;2.63;;;2.10;;
23718;SDS011;43322;52.230;5.702;2022-07-06T02:45:28;4.00;;;1.92;;
23718;SDS011;43322;52.230;5.702;2022-07-06T02:47:56;3.35;;;2.20;;
23718;SDS011;43322;52.230;5.702;2022-07-06T02:50:24;4.97;;;1.90;;
23718;SDS011;43322;52.230;5.702;2022-07-06T02:52:50;2.33;;;2.00;;
23718;SDS011;43322;52.230;5.702;2022-07-06T02:55:17;2.42;;;1.77;;
23718;SDS011;43322;52.230;5.702;2022-07-06T02:57:44;3.28;;;1.90;;
23718;SDS011;43322;52.230;5.702;2022-07-06T03:00:11;1.77;;;1.67;;
23718;SDS011;43322;52.230;5.702;2022-07-06T03:02:39;2.65;;;1.85;;
23718;SDS011;43322;52.230;5.702;2022-07-06T03:05:07;2.45;;;1.85;;
23718;SDS011;43322;52.230;5.702;2022-07-06T03:07:34;3.92;;;2.08;;
23718;SDS011;43322;52.230;5.702;2022-07-06T03:10:01;2.35;;;2.15;;
23718;SDS011;43322;52.230;5.702;2022-07-06T03:12:28;2.13;;;2.03;;
23718;SDS011;43322;52.230;5.702;2022-07-06T03:14:55;3.10;;;2.17;;
23718;SDS011;43322;52.230;5.702;2022-07-06T03:17:21;2.05;;;1.92;;
23718;SDS011;43322;52.230;5.702;2022-07-06T03:19:48;2.10;;;1.90;;
23718;SDS011;43322;52.230;5.702;2022-07-06T03:22:16;2.50;;;2.30;;
23718;SDS011;43322;52.230;5.702;2022-07-06T03:24:43;3.90;;;2.13;;
23718;SDS011;43322;52.230;5.702;2022-07-06T03:27:10;1.92;;;1.83;;
23718;SDS011;43322;52.230;5.702;2022-07-06T03:29:37;2.15;;;1.70;;
23718;SDS011;43322;52.230;5.702;2022-07-06T03:32:04;1.90;;;1.80;;
23718;SDS011;43322;52.230;5.702;2022-07-06T03:34:31;2.10;;;1.90;;
23718;SDS011;43322;52.230;5.702;2022-07-06T03:36:58;2.20;;;1.85;;
23718;SDS011;43322;52.230;5.702;2022-07-06T03:39:26;5.25;;;2.20;;
23718;SDS011;43322;52.230;5.702;2022-07-06T03:41:53;2.38;;;1.85;;
23718;SDS011;43322;52.230;5.702;2022-07-06T03:44:19;2.10;;;1.90;;
23718;SDS011;43322;52.230;5.702;2022-07-06T03:46:46;2.67;;;1.90;;
23718;SDS011;43322;52.230;5.702;2022-07-06T03:49:14;3.83;;;1.90;;
23718;SDS011;43322;52.230;5.702;2022-07-06T03:51:41;2.45;;;1.70;;
23718;SDS011;43322;52.230;5.702;2022-07-06T03:54:07;1.85;;;1.75;;
23718;SDS011;43322;52.230;5.702;2022-07-06T03:56:36;2.85;;;1.90;;
23718;SDS011;43322;52.230;5.702;2022-07-06T03:59:03;2.08;;;1.85;;
23718;SDS011;43322;52.230;5.702;2022-07-06T04:01:30;3.42;;;1.83;;
23718;SDS011;43322;52.230;5.702;2022-07-06T04:03:57;2.38;;;1.92;;
23718;SDS011;43322;52.230;5.702;2022-07-06T04:06:24;3.00;;;2.28;;
23718;SDS011;43322;52.230;5.702;2022-07-06T04:08:51;2.10;;;1.80;;
23718;SDS011;43322;52.230;5.702;2022-07-06T04:11:18;3.60;;;1.83;;
23718;SDS011;43322;52.230;5.702;2022-07-06T04:13:46;2.08;;;1.58;;
23718;SDS011;43322;52.230;5.702;2022-07-06T04:16:13;1.88;;;1.77;;
23718;SDS011;43322;52.230;5.702;2022-07-06T04:18:39;3.30;;;1.70;;
23718;SDS011;43322;52.230;5.702;2022-07-06T04:21:06;3.92;;;1.75;;
23718;SDS011;43322;52.230;5.702;2022-07-06T04:23:33;4.65;;;2.03;;
23718;SDS011;43322;52.230;5.702;2022-07-06T04:26:00;2.25;;;2.13;;
23718;SDS011;43322;52.230;5.702;2022-07-06T04:28:27;2.13;;;2.03;;
23718;SDS011;43322;52.230;5.702;2022-07-06T04:30:55;2.97;;;2.05;;
23718;SDS011;43322;52.230;5.702;2022-07-06T04:33:22;2.63;;;2.47;;
23718;SDS011;43322;52.230;5.702;2022-07-06T04:35:48;2.15;;;1.92;;
23718;SDS011;43322;52.230;5.702;2022-07-06T04:38:15;2.33;;;2.20;;
23718;SDS011;43322;52.230;5.702;2022-07-06T04:40:43;2.25;;;2.13;;
23718;SDS011;43322;52.230;5.702;2022-07-06T04:43:11;1.90;;;1.80;;
23718;SDS011;43322;52.230;5.702;2022-07-06T04:45:38;1.95;;;1.85;;
23718;SDS011;43322;52.230;5.702;2022-07-06T04:48:06;2.30;;;2.13;;
23718;SDS011;43322;52.230;5.702;2022-07-06T04:50:33;9.68;;;2.47;;
23718;SDS011;43322;52.230;5.702;2022-07-06T04:53:00;2.20;;;2.10;;
23718;SDS011;43322;52.230;5.702;2022-07-06T04:55:26;4.95;;;2.10;;
23718;SDS011;43322;52.230;5.702;2022-07-06T04:57:53;2.25;;;2.00;;
23718;SDS011;43322;52.230;5.702;2022-07-06T05:00:20;5.90;;;1.95;;
23718;SDS011;43322;52.230;5.702;2022-07-06T05:02:47;3.90;;;2.35;;
23718;SDS011;43322;52.230;5.702;2022-07-06T05:05:15;2.33;;;1.85;;
23718;SDS011;43322;52.230;5.702;2022-07-06T05:07:42;2.10;;;2.00;;
23718;SDS011;43322;52.230;5.702;2022-07-06T05:10:09;3.17;;;2.05;;
23718;SDS011;43322;52.230;5.702;2022-07-06T05:12:37;3.75;;;2.30;;
23718;SDS011;43322;52.230;5.702;2022-07-06T05:15:05;2.90;;;2.20;;
23718;SDS011;43322;52.230;5.702;2022-07-06T05:17:33;2.47;;;2.25;;
23718;SDS011;43322;52.230;5.702;2022-07-06T05:20:00;3.75;;;2.30;;
23718;SDS011;43322;52.230;5.702;2022-07-06T05:22:28;2.17;;;2.00;;
23718;SDS011;43322;52.230;5.702;2022-07-06T05:24:55;3.33;;;2.45;;
23718;SDS011;43322;52.230;5.702;2022-07-06T05:27:21;2.35;;;2.15;;
23718;SDS011;43322;52.230;5.702;2022-07-06T05:29:49;2.53;;;1.85;;
23718;SDS011;43322;52.230;5.702;2022-07-06T05:32:15;1.92;;;1.77;;
23718;SDS011;43322;52.230;5.702;2022-07-06T05:34:42;2.10;;;1.90;;
23718;SDS011;43322;52.230;5.702;2022-07-06T05:37:09;3.35;;;1.90;;
23718;SDS011;43322;52.230;5.702;2022-07-06T05:39:37;3.10;;;1.50;;
23718;SDS011;43322;52.230;5.702;2022-07-06T05:42:04;2.38;;;1.85;;
23718;SDS011;43322;52.230;5.702;2022-07-06T05:44:31;4.88;;;2.20;;
23718;SDS011;43322;52.230;5.702;2022-07-06T05:46:58;3.53;;;1.80;;
23718;SDS011;43322;52.230;5.702;2022-07-06T05:49:39;1.92;;;1.75;;
23718;SDS011;43322;52.230;5.702;2022-07-06T05:52:23;2.05;;;1.70;;
23718;SDS011;43322;52.230;5.702;2022-07-06T05:54:51;3.58;;;2.17;;
23718;SDS011;43322;52.230;5.702;2022-07-06T05:57:18;2.08;;;1.85;;
23718;SDS011;43322;52.230;5.702;2022-07-06T05:59:45;1.98;;;1.58;;
23718;SDS011;43322;52.230;5.702;2022-07-06T06:02:11;3.50;;;2.10;;
23718;SDS011;43322;52.230;5.702;2022-07-06T06:04:38;1.88;;;1.77;;
23718;SDS011;43322;52.230;5.702;2022-07-06T06:07:05;5.78;;;1.73;;
23718;SDS011;43322;52.230;5.702;2022-07-06T06:09:31;2.65;;;2.00;;
23718;SDS011;43322;52.230;5.702;2022-07-06T06:11:59;3.85;;;1.70;;
23718;SDS011;43322;52.230;5.702;2022-07-06T06:14:26;3.45;;;1.50;;
23718;SDS011;43322;52.230;5.702;2022-07-06T06:16:53;2.83;;;1.70;;
23718;SDS011;43322;52.230;5.702;2022-07-06T06:19:20;2.90;;;1.65;;
23718;SDS011;43322;52.230;5.702;2022-07-06T06:21:46;5.70;;;2.03;;
23718;SDS011;43322;52.230;5.702;2022-07-06T06:24:13;4.80;;;1.40;;
23718;SDS011;43322;52.230;5.702;2022-07-06T06:26:40;3.83;;;1.20;;
23718;SDS011;43322;52.230;5.702;2022-07-06T06:29:08;2.03;;;0.90;;
23718;SDS011;43322;52.230;5.702;2022-07-06T06:31:35;1.33;;;0.90;;
23718;SDS011;43322;52.230;5.702;2022-07-06T06:34:02;1.48;;;0.80;;
23718;SDS011;43322;52.230;5.702;2022-07-06T06:36:29;1.33;;;1.10;;
23718;SDS011;43322;52.230;5.702;2022-07-06T06:38:55;2.28;;;0.80;;
23718;SDS011;43322;52.230;5.702;2022-07-06T06:41:22;2.58;;;0.70;;
23718;SDS011;43322;52.230;5.702;2022-07-06T06:43:49;1.83;;;0.80;;
23718;SDS011;43322;52.230;5.702;2022-07-06T06:46:17;4.13;;;0.90;;
23718;SDS011;43322;52.230;5.702;2022-07-06T06:48:44;2.47;;;0.93;;
23718;SDS011;43322;52.230;5.702;2022-07-06T06:51:10;1.60;;;0.77;;
23718;SDS011;43322;52.230;5.702;2022-07-06T06:53:37;1.60;;;0.80;;
23718;SDS011;43322;52.230;5.702;2022-07-06T06:56:04;2.20;;;0.57;;
23718;SDS011;43322;52.230;5.702;2022-07-06T06:58:31;2.58;;;0.80;;
23718;SDS011;43322;52.230;5.702;2022-07-06T07:00:58;1.95;;;0.70;;
23718;SDS011;43322;52.230;5.702;2022-07-06T07:03:26;2.65;;;0.65;;
23718;SDS011;43322;52.230;5.702;2022-07-06T07:05:53;1.75;;;0.60;;
23718;SDS011;43322;52.230;5.702;2022-07-06T07:08:20;1.95;;;0.65;;
23718;SDS011;43322;52.230;5.702;2022-07-06T07:10:47;0.73;;;0.70;;
23718;SDS011;43322;52.230;5.702;2022-07-06T07:13:14;1.02;;;0.75;;
23718;SDS011;43322;52.230;5.702;2022-07-06T07:15:41;1.27;;;0.75;;
23718;SDS011;43322;52.230;5.702;2022-07-06T07:18:07;1.92;;;0.55;;
23718;SDS011;43322;52.230;5.702;2022-07-06T07:20:35;1.10;;;0.68;;
23718;SDS011;43322;52.230;5.702;2022-07-06T07:23:02;3.80;;;0.65;;
23718;SDS011;43322;52.230;5.702;2022-07-06T07:25:29;1.00;;;0.70;;
23718;SDS011;43322;52.230;5.702;2022-07-06T07:27:56;1.65;;;0.70;;
23718;SDS011;43322;52.230;5.702;2022-07-06T07:30:23;2.47;;;0.73;;
23718;SDS011;43322;52.230;5.702;2022-07-06T07:32:49;0.63;;;0.50;;
23718;SDS011;43322;52.230;5.702;2022-07-06T07:35:16;3.83;;;0.90;;
23718;SDS011;43322;52.230;5.702;2022-07-06T07:37:44;0.70;;;0.57;;
23718;SDS011;43322;52.230;5.702;2022-07-06T07:40:11;1.65;;;0.65;;
23718;SDS011;43322;52.230;5.702;2022-07-06T07:42:38;1.77;;;0.52;;
23718;SDS011;43322;52.230;5.702;2022-07-06T07:45:06;0.90;;;0.50;;
23718;SDS011;43322;52.230;5.702;2022-07-06T07:47:33;0.93;;;0.40;;
23718;SDS011;43322;52.230;5.702;2022-07-06T07:50:00;1.65;;;0.50;;
23718;SDS011;43322;52.230;5.702;2022-07-06T07:52:26;2.42;;;0.73;;
23718;SDS011;43322;52.230;5.702;2022-07-06T07:54:54;2.10;;;0.55;;
23718;SDS011;43322;52.230;5.702;2022-07-06T07:57:21;0.70;;;0.60;;
23718;SDS011;43322;52.230;5.702;2022-07-06T07:59:48;1.65;;;0.73;;
23718;SDS011;43322;52.230;5.702;2022-07-06T08:02:15;1.92;;;0.55;;
23718;SDS011;43322;52.230;5.702;2022-07-06T08:04:41;1.35;;;0.65;;
23718;SDS011;43322;52.230;5.702;2022-07-06T08:07:08;1.35;;;0.50;;
23718;SDS011;43322;52.230;5.702;2022-07-06T08:09:35;1.00;;;0.70;;
23718;SDS011;43322;52.230;5.702;2022-07-06T08:12:03;1.25;;;0.50;;
23718;SDS011;43322;52.230;5.702;2022-07-06T08:14:30;0.85;;;0.63;;
23718;SDS011;43322;52.230;5.702;2022-07-06T08:16:57;1.58;;;0.60;;
23718;SDS011;43322;52.230;5.702;2022-07-06T08:19:24;0.50;;;0.50;;
23718;SDS011;43322;52.230;5.702;2022-07-06T08:21:51;0.68;;;0.38;;
23718;SDS011;43322;52.230;5.702;2022-07-06T08:24:17;1.00;;;0.45;;
23718;SDS011;43322;52.230;5.702;2022-07-06T08:26:44;3.17;;;1.17;;
23718;SDS011;43322;52.230;5.702;2022-07-06T08:29:13;2.58;;;0.50;;
23718;SDS011;43322;52.230;5.702;2022-07-06T08:31:39;4.10;;;0.52;;
23718;SDS011;43322;52.230;5.702;2022-07-06T08:34:06;0.85;;;0.50;;
23718;SDS011;43322;52.230;5.702;2022-07-06T08:36:33;1.83;;;0.60;;
23718;SDS011;43322;52.230;5.702;2022-07-06T08:39:00;0.57;;;0.40;;
23718;SDS011;43322;52.230;5.702;2022-07-06T08:41:28;1.73;;;0.40;;
23718;SDS011;43322;52.230;5.702;2022-07-06T08:43:56;1.42;;;0.60;;
23718;SDS011;43322;52.230;5.702;2022-07-06T08:46:24;2.10;;;0.45;;
23718;SDS011;43322;52.230;5.702;2022-07-06T08:48:54;0.70;;;0.40;;
23718;SDS011;43322;52.230;5.702;2022-07-06T08:51:22;0.88;;;0.50;;
23718;SDS011;43322;52.230;5.702;2022-07-06T08:53:50;1.25;;;0.57;;
23718;SDS011;43322;52.230;5.702;2022-07-06T08:56:19;1.00;;;0.47;;
23718;SDS011;43322;52.230;5.702;2022-07-06T08:58:46;1.95;;;0.68;;
23718;SDS011;43322;52.230;5.702;2022-07-06T09:01:13;1.30;;;0.40;;
23718;SDS011;43322;52.230;5.702;2022-07-06T09:03:42;2.28;;;0.45;;
23718;SDS011;43322;52.230;5.702;2022-07-06T09:06:11;1.10;;;0.40;;
23718;SDS011;43322;52.230;5.702;2022-07-06T09:08:42;0.80;;;0.50;;
23718;SDS011;43322;52.230;5.702;2022-07-06T09:11:10;1.00;;;0.40;;
23718;SDS011;43322;52.230;5.702;2022-07-06T09:13:37;0.85;;;0.40;;
23718;SDS011;43322;52.230;5.702;2022-07-06T09:16:10;2.05;;;0.55;;
23718;SDS011;43322;52.230;5.702;2022-07-06T09:18:38;1.10;;;0.63;;
23718;SDS011;43322;52.230;5.702;2022-07-06T09:21:09;1.02;;;0.50;;
23718;SDS011;43322;52.230;5.702;2022-07-06T09:23:36;1.52;;;0.40;;
23718;SDS011;43322;52.230;5.702;2022-07-06T09:26:03;1.52;;;0.60;;
23718;SDS011;43322;52.230;5.702;2022-07-06T09:28:41;1.30;;;0.60;;
23718;SDS011;43322;52.230;5.702;2022-07-06T09:31:08;1.55;;;0.45;;
23718;SDS011;43322;52.230;5.702;2022-07-06T09:33:35;4.07;;;0.80;;
23718;SDS011;43322;52.230;5.702;2022-07-06T09:36:03;0.90;;;0.47;;
23718;SDS011;43322;52.230;5.702;2022-07-06T09:38:32;0.63;;;0.47;;
23718;SDS011;43322;52.230;5.702;2022-07-06T09:40:58;0.60;;;0.50;;
23718;SDS011;43322;52.230;5.702;2022-07-06T09:43:27;0.90;;;0.50;;
23718;SDS011;43322;52.230;5.702;2022-07-06T09:45:56;0.60;;;0.60;;
23718;SDS011;43322;52.230;5.702;2022-07-06T09:48:23;1.27;;;0.60;;
23718;SDS011;43322;52.230;5.702;2022-07-06T09:50:51;0.73;;;0.40;;
23718;SDS011;43322;52.230;5.702;2022-07-06T09:53:19;4.30;;;0.80;;
23718;SDS011;43322;52.230;5.702;2022-07-06T09:55:49;1.50;;;0.52;;
23718;SDS011;43322;52.230;5.702;2022-07-06T09:58:17;0.75;;;0.60;;
23718;SDS011;43322;52.230;5.702;2022-07-06T10:00:45;1.27;;;0.47;;
23718;SDS011;43322;52.230;5.702;2022-07-06T10:03:13;1.75;;;0.40;;
23718;SDS011;43322;52.230;5.702;2022-07-06T10:05:41;1.40;;;0.82;;
23718;SDS011;43322;52.230;5.702;2022-07-06T10:08:11;0.60;;;0.50;;
23718;SDS011;43322;52.230;5.702;2022-07-06T10:10:38;1.38;;;0.55;;
23718;SDS011;43322;52.230;5.702;2022-07-06T10:13:07;1.00;;;0.50;;
23718;SDS011;43322;52.230;5.702;2022-07-06T10:15:35;2.45;;;0.63;;
23718;SDS011;43322;52.230;5.702;2022-07-06T10:18:04;1.98;;;0.45;;
23718;SDS011;43322;52.230;5.702;2022-07-06T10:20:32;1.13;;;0.45;;
23718;SDS011;43322;52.230;5.702;2022-07-06T10:23:02;2.78;;;1.25;;
23718;SDS011;43322;52.230;5.702;2022-07-06T10:25:30;0.88;;;0.40;;
23718;SDS011;43322;52.230;5.702;2022-07-06T10:27:58;0.50;;;0.50;;
23718;SDS011;43322;52.230;5.702;2022-07-06T10:30:27;0.40;;;0.40;;
23718;SDS011;43322;52.230;5.702;2022-07-06T10:32:56;2.17;;;0.52;;
23718;SDS011;43322;52.230;5.702;2022-07-06T10:35:24;0.57;;;0.57;;
23718;SDS011;43322;52.230;5.702;2022-07-06T10:38:02;2.42;;;0.60;;
23718;SDS011;43322;52.230;5.702;2022-07-06T10:40:34;0.40;;;0.40;;
23718;SDS011;43322;52.230;5.702;2022-07-06T10:43:18;1.23;;;0.50;;
23718;SDS011;43322;52.230;5.702;2022-07-06T10:45:53;0.80;;;0.40;;
23718;SDS011;43322;52.230;5.702;2022-07-06T10:48:20;4.55;;;0.57;;
23718;SDS011;43322;52.230;5.702;2022-07-06T10:50:48;0.75;;;0.40;;
23718;SDS011;43322;52.230;5.702;2022-07-06T10:53:17;0.63;;;0.40;;
23718;SDS011;43322;52.230;5.702;2022-07-06T10:55:47;1.65;;;0.43;;
23718;SDS011;43322;52.230;5.702;2022-07-06T11:01:03;0.63;;;0.40;;
23718;SDS011;43322;52.230;5.702;2022-07-06T11:03:32;1.20;;;0.40;;
23718;SDS011;43322;52.230;5.702;2022-07-06T11:06:00;0.80;;;0.45;;
23718;SDS011;43322;52.230;5.702;2022-07-06T11:08:49;1.15;;;0.50;;
23718;SDS011;43322;52.230;5.702;2022-07-06T11:11:17;3.03;;;0.43;;
23718;SDS011;43322;52.230;5.702;2022-07-06T11:13:49;3.33;;;0.38;;
23718;SDS011;43322;52.230;5.702;2022-07-06T11:16:19;1.35;;;0.60;;
23718;SDS011;43322;52.230;5.702;2022-07-06T11:18:49;1.25;;;0.60;;
23718;SDS011;43322;52.230;5.702;2022-07-06T11:21:31;1.63;;;0.50;;
23718;SDS011;43322;52.230;5.702;2022-07-06T11:24:00;1.67;;;0.40;;
23718;SDS011;43322;52.230;5.702;2022-07-06T11:26:27;1.40;;;0.50;;
23718;SDS011;43322;52.230;5.702;2022-07-06T11:28:56;1.48;;;0.50;;
23718;SDS011;43322;52.230;5.702;2022-07-06T11:31:26;2.05;;;0.40;;
23718;SDS011;43322;52.230;5.702;2022-07-06T11:33:53;1.15;;;0.40;;
23718;SDS011;43322;52.230;5.702;2022-07-06T11:36:21;1.13;;;0.45;;
23718;SDS011;43322;52.230;5.702;2022-07-06T11:38:49;1.70;;;0.60;;
23718;SDS011;43322;52.230;5.702;2022-07-06T11:41:17;1.95;;;1.00;;
23718;SDS011;43322;52.230;5.702;2022-07-06T11:43:44;0.40;;;0.30;;
23718;SDS011;43322;52.230;5.702;2022-07-06T11:46:19;0.95;;;0.55;;
23718;SDS011;43322;52.230;5.702;2022-07-06T11:48:51;3.08;;;0.70;;
23718;SDS011;43322;52.230;5.702;2022-07-06T11:51:20;0.75;;;0.40;;
23718;SDS011;43322;52.230;5.702;2022-07-06T11:53:48;1.27;;;0.73;;
23718;SDS011;43322;52.230;5.702;2022-07-06T11:56:16;0.50;;;0.50;;
23718;SDS011;43322;52.230;5.702;2022-07-06T11:58:44;1.00;;;0.70;;
23718;SDS011;43322;52.230;5.702;2022-07-06T12:01:12;3.70;;;0.65;;
23718;SDS011;43322;52.230;5.702;2022-07-06T12:03:40;3.53;;;0.60;;
23718;SDS011;43322;52.230;5.702;2022-07-06T12:06:14;1.60;;;0.60;;
23718;SDS011;43322;52.230;5.702;2022-07-06T12:08:43;1.67;;;0.68;;
23718;SDS011;43322;52.230;5.702;2022-07-06T12:11:16;1.23;;;0.77;;
23718;SDS011;43322;52.230;5.702;2022-07-06T12:13:45;2.67;;;0.65;;
23718;SDS011;43322;52.230;5.702;2022-07-06T12:16:12;0.98;;;0.65;;
23718;SDS011;43322;52.230;5.702;2022-07-06T12:18:40;3.17;;;0.70;;
23718;SDS011;43322;52.230;5.702;2022-07-06T12:21:08;0.75;;;0.52;;
23718;SDS011;43322;52.230;5.702;2022-07-06T12:23:46;0.90;;;0.60;;
23718;SDS011;43322;52.230;5.702;2022-07-06T12:26:14;1.83;;;0.70;;
23718;SDS011;43322;52.230;5.702;2022-07-06T12:28:43;3.13;;;0.75;;
23718;SDS011;43322;52.230;5.702;2022-07-06T12:31:10;1.65;;;0.88;;
23718;SDS011;43322;52.230;5.702;2022-07-06T12:33:37;2.40;;;0.93;;
23718;SDS011;43322;52.230;5.702;2022-07-06T12:36:11;0.85;;;0.60;;
23718;SDS011;43322;52.230;5.702;2022-07-06T12:38:43;1.38;;;0.75;;
23718;SDS011;43322;52.230;5.702;2022-07-06T12:41:30;0.57;;;0.43;;
23718;SDS011;43322;52.230;5.702;2022-07-06T12:44:01;1.52;;;0.70;;
23718;SDS011;43322;52.230;5.702;2022-07-06T12:46:30;2.05;;;0.65;;
23718;SDS011;43322;52.230;5.702;2022-07-06T12:48:59;1.35;;;0.50;;
23718;SDS011;43322;52.230;5.702;2022-07-06T12:51:26;0.80;;;0.80;;
23718;SDS011;43322;52.230;5.702;2022-07-06T12:56:58;0.38;;;0.38;;
23718;SDS011;43322;52.230;5.702;2022-07-06T12:59:31;1.65;;;0.52;;
23718;SDS011;43322;52.230;5.702;2022-07-06T13:02:00;1.30;;;0.55;;
23718;SDS011;43322;52.230;5.702;2022-07-06T13:04:27;1.88;;;0.47;;
23718;SDS011;43322;52.230;5.702;2022-07-06T13:06:56;0.63;;;0.60;;
23718;SDS011;43322;52.230;5.702;2022-07-06T13:09:25;0.47;;;0.45;;
23718;SDS011;43322;52.230;5.702;2022-07-06T13:11:52;0.63;;;0.52;;
23718;SDS011;43322;52.230;5.702;2022-07-06T13:14:19;0.40;;;0.40;;
23718;SDS011;43322;52.230;5.702;2022-07-06T13:16:46;2.78;;;0.50;;
23718;SDS011;43322;52.230;5.702;2022-07-06T13:19:14;0.77;;;0.50;;
23718;SDS011;43322;52.230;5.702;2022-07-06T13:21:41;1.20;;;0.60;;
23718;SDS011;43322;52.230;5.702;2022-07-06T13:24:09;1.65;;;0.52;;
23718;SDS011;43322;52.230;5.702;2022-07-06T13:26:37;3.92;;;0.77;;
23718;SDS011;43322;52.230;5.702;2022-07-06T13:29:04;0.47;;;0.40;;
23718;SDS011;43322;52.230;5.702;2022-07-06T13:31:32;0.40;;;0.40;;
23718;SDS011;43322;52.230;5.702;2022-07-06T13:33:59;0.73;;;0.60;;
23718;SDS011;43322;52.230;5.702;2022-07-06T13:36:25;3.55;;;1.02;;
23718;SDS011;43322;52.230;5.702;2022-07-06T13:38:52;2.80;;;0.60;;
23718;SDS011;43322;52.230;5.702;2022-07-06T13:41:19;1.58;;;0.47;;
23718;SDS011;43322;52.230;5.702;2022-07-06T13:43:47;2.22;;;0.90;;
23718;SDS011;43322;52.230;5.702;2022-07-06T13:46:14;0.88;;;0.60;;
23718;SDS011;43322;52.230;5.702;2022-07-06T13:48:41;0.70;;;0.47;;
23718;SDS011;43322;52.230;5.702;2022-07-06T13:51:08;1.00;;;0.68;;
23718;SDS011;43322;52.230;5.702;2022-07-06T13:53:35;1.30;;;0.60;;
23718;SDS011;43322;52.230;5.702;2022-07-06T13:56:03;3.03;;;0.70;;
23718;SDS011;43322;52.230;5.702;2022-07-06T13:58:30;1.48;;;0.70;;
23718;SDS011;43322;52.230;5.702;2022-07-06T14:00:58;0.90;;;0.80;;
23718;SDS011;43322;52.230;5.702;2022-07-06T14:03:25;1.25;;;0.60;;
23718;SDS011;43322;52.230;5.702;2022-07-06T14:05:54;0.50;;;0.50;;
23718;SDS011;43322;52.230;5.702;2022-07-06T14:08:22;2.03;;;0.57;;
23718;SDS011;43322;52.230;5.702;2022-07-06T14:10:49;0.77;;;0.60;;
23718;SDS011;43322;52.230;5.702;2022-07-06T14:13:16;1.35;;;0.77;;
23718;SDS011;43322;52.230;5.702;2022-07-06T14:15:43;3.38;;;0.52;;
23718;SDS011;43322;52.230;5.702;2022-07-06T14:18:11;0.70;;;0.60;;
23718;SDS011;43322;52.230;5.702;2022-07-06T14:20:38;4.38;;;0.77;;
23718;SDS011;43322;52.230;5.702;2022-07-06T14:23:04;1.67;;;0.80;;
23718;SDS011;43322;52.230;5.702;2022-07-06T14:25:31;2.17;;;0.75;;
23718;SDS011;43322;52.230;5.702;2022-07-06T14:27:58;2.08;;;0.70;;
23718;SDS011;43322;52.230;5.702;2022-07-06T14:30:27;1.30;;;0.60;;
23718;SDS011;43322;52.230;5.702;2022-07-06T14:32:53;1.60;;;0.70;;
23718;SDS011;43322;52.230;5.702;2022-07-06T14:35:22;0.55;;;0.40;;
23718;SDS011;43322;52.230;5.702;2022-07-06T14:37:50;1.83;;;0.70;;
23718;SDS011;43322;52.230;5.702;2022-07-06T14:40:17;1.95;;;0.73;;
23718;SDS011;43322;52.230;5.702;2022-07-06T14:42:44;1.33;;;0.70;;
23718;SDS011;43322;52.230;5.702;2022-07-06T14:45:10;2.10;;;0.80;;
23718;SDS011;43322;52.230;5.702;2022-07-06T14:47:37;1.80;;;0.68;;
23718;SDS011;43322;52.230;5.702;2022-07-06T14:50:04;2.05;;;1.30;;
23718;SDS011;43322;52.230;5.702;2022-07-06T14:52:32;0.73;;;0.73;;
23718;SDS011;43322;52.230;5.702;2022-07-06T14:54:59;1.23;;;0.60;;
23718;SDS011;43322;52.230;5.702;2022-07-06T14:57:26;2.15;;;0.98;;